Oneco, Florida
Current Conditions -  °F | °C
As of 3:53 PM on Tuesday 25 Nov 2014 (Local Time) from KSRQ Reporting Station
Overcast Overcast  
Wind Chill: 75°   Ceiling: 700
Heat Index: 75°   Visibility: 7mi
Dew Point: 74°   Wind: 16mph
Humidity: 96%   Direction: 180°S
Pressure: 29.87"   Gusts: 26mph
Location:  27.45°N, 82.55°W
Report Text: KSRQ 252053Z AUTO 18014G23KT 7SM OVC007 24/23 A2987 RMK AO2 PK WND 17027/2007 RAB11E20 CIG 004V009 SLP114 P0000 60000 T02390233 58002
Loading
Personal Weather Stations






























Interactive Weather Map New forecast layout! Learn more

10-Day Weather Forecast

Advertisements
Track Severe Weather on mobile